.
WxDataArchive / Data Records for 2010-08-16
2010-08-15 August 2010 2010-08-17

Data Records for Monday, 16 August 2010

Time	Temp	Chill	HIndex	Humid	Dewpt	 Wind 	HiWind	WindDir	Rain 	Barom 
-----	----	-----	------	-----	-----	------	------	-------	-----	----- 
00:00	73.0	73.0	73.0	68	61.8	0	1	292	0.00	29.910 
00:05	72.8	72.8	72.8	69	62.0	0	0	---	0.00	29.910 
00:10	72.7	72.7	72.7	69	61.9	0	0	---	0.00	29.910 
00:15	72.5	72.5	72.5	70	62.1	0	1	292	0.00	29.911 
00:20	72.3	72.3	72.3	71	62.4	0	0	---	0.00	29.911 
00:25	72.1	72.1	72.1	71	62.2	0	1	292	0.00	29.911 
00:30	72.1	72.1	72.1	72	62.6	0	3	292	0.00	29.912 
00:35	72.3	72.3	72.3	71	62.4	0	2	292	0.00	29.912 
00:40	72.3	72.3	72.3	72	62.8	0	1	292	0.00	29.912 
00:45	72.3	72.3	72.3	72	62.8	0	2	292	0.00	29.919 
00:50	72.3	72.3	72.3	71	62.4	1	4	292	0.00	29.919 
00:55	72.3	72.3	72.3	71	62.4	1	3	292	0.00	29.919 
01:00	72.3	72.3	72.3	70	62.0	1	3	292	0.00	29.921 
01:05	72.3	72.3	72.3	70	62.0	2	5	292	0.00	29.921 
01:10	72.3	72.3	72.3	69	61.5	2	5	292	0.00	29.921 
01:15	72.1	72.1	72.1	70	61.8	2	4	270	0.00	29.911 
01:20	72.0	72.0	72.0	70	61.7	2	5	292	0.00	29.911 
01:25	71.8	71.8	71.8	70	61.5	1	4	315	0.00	29.911 
01:30	71.8	71.8	71.8	70	61.5	3	7	270	0.00	29.919 
01:35	71.6	71.6	71.6	70	61.3	2	6	270	0.00	29.919 
01:40	71.5	71.5	71.5	71	61.6	2	5	270	0.00	29.919 
01:45	71.3	71.3	71.3	71	61.4	2	6	270	0.00	29.920 
01:50	71.1	71.1	71.1	71	61.2	1	5	292	0.00	29.920 
01:55	70.9	70.9	70.9	71	61.0	2	5	270	0.00	29.920 
02:00	70.8	70.8	70.8	71	60.9	1	4	338	0.00	29.919 
02:05	70.6	70.6	70.6	71	60.7	1	4	270	0.00	29.919 
02:10	70.6	70.6	70.6	71	60.7	2	5	315	0.00	29.919 
02:15	70.6	70.6	70.6	70	60.3	1	3	292	0.00	29.926 
02:20	70.4	70.4	70.4	71	60.5	1	4	292	0.00	29.926 
02:25	70.3	70.3	70.3	71	60.4	1	3	292	0.00	29.926 
02:30	70.3	70.3	70.3	71	60.4	1	2	292	0.00	29.935 
02:35	70.1	70.1	70.1	72	60.6	0	2	292	0.00	29.935 
02:40	69.9	69.9	69.9	72	60.4	1	4	270	0.00	29.935 
02:45	69.8	69.8	69.8	72	60.4	0	3	270	0.00	29.941 
02:50	69.6	69.6	69.6	72	60.2	1	3	270	0.00	29.941 
02:55	69.6	69.6	69.6	72	60.2	1	3	292	0.00	29.941 
03:00	69.4	69.4	69.4	72	60.0	0	2	292	0.00	29.944 
03:05	69.3	69.3	69.3	72	59.9	0	1	292	0.00	29.944 
03:10	69.1	69.1	69.1	72	59.7	1	3	292	0.00	29.944 
03:15	69.1	69.1	69.1	72	59.7	1	3	292	0.00	29.945 
03:20	69.1	69.1	69.1	72	59.7	0	2	292	0.00	29.945 
03:25	68.9	68.9	68.9	72	59.5	0	1	292	0.00	29.945 
03:30	68.8	68.8	68.8	72	59.4	1	2	292	0.00	29.945 
03:35	68.6	68.6	68.6	72	59.2	0	2	292	0.00	29.945 
03:40	68.6	68.6	68.6	72	59.2	0	2	292	0.00	29.945 
03:45	68.4	68.4	68.4	73	59.4	0	1	292	0.00	29.949 
03:50	68.3	68.3	68.3	73	59.3	0	2	292	0.00	29.949 
03:55	67.9	67.9	67.9	73	58.9	0	1	292	0.00	29.949 
04:00	67.8	67.8	67.8	73	58.8	0	2	292	0.00	29.952 
04:05	67.8	67.8	67.8	73	58.8	0	1	292	0.00	29.952 
04:10	67.4	67.4	67.4	74	58.8	0	1	292	0.00	29.952 
04:15	67.3	67.3	67.3	74	58.7	0	0	---	0.00	29.957 
04:20	67.1	67.1	67.1	74	58.5	0	0	---	0.00	29.957 
04:25	66.8	66.8	66.8	75	58.6	0	0	---	0.00	29.957 
04:30	66.4	66.4	66.4	75	58.2	0	0	---	0.00	29.956 
04:35	66.1	66.1	66.1	76	58.3	0	0	---	0.00	29.956 
04:40	65.8	65.8	65.8	77	58.4	0	0	---	0.00	29.956 
04:45	65.5	65.5	65.5	78	58.5	0	0	---	0.00	29.959 
04:50	65.2	65.2	65.2	78	58.2	0	0	---	0.00	29.959 
04:55	64.8	64.8	64.8	79	58.1	0	0	---	0.00	29.959 
05:00	64.7	64.7	64.7	80	58.4	0	0	---	0.00	29.960 
05:05	64.3	64.3	64.3	80	58.0	0	0	---	0.00	29.960 
05:10	64.2	64.2	64.2	81	58.2	0	0	---	0.00	29.960 
05:15	64.0	64.0	64.0	81	58.0	0	0	---	0.00	29.961 
05:20	63.9	63.9	63.9	82	58.3	0	0	---	0.00	29.961 
05:25	63.7	63.7	63.7	82	58.1	0	0	---	0.00	29.961 
05:30	63.5	63.5	63.5	82	57.9	0	0	---	0.00	29.962 
05:35	63.5	63.5	63.5	82	57.9	0	0	---	0.00	29.962 
05:40	63.4	63.4	63.4	83	58.1	0	0	---	0.00	29.962 
05:45	63.1	63.1	63.1	83	57.8	0	0	---	0.00	29.964 
05:50	62.9	62.9	62.9	83	57.7	0	0	---	0.00	29.964 
05:55	62.7	62.7	62.7	83	57.5	0	0	---	0.00	29.964 
06:00	62.6	62.6	62.6	84	57.7	0	0	---	0.00	29.965 
06:05	62.4	62.4	62.4	84	57.5	0	0	---	0.00	29.965 
06:10	62.3	62.3	62.3	84	57.4	0	0	---	0.00	29.965 
06:15	62.3	62.3	62.3	84	57.4	0	0	---	0.00	29.967 
06:20	62.1	62.1	62.1	85	57.5	0	0	---	0.00	29.967 
06:25	62.0	62.0	62.0	85	57.4	0	0	---	0.00	29.967 
06:30	61.8	61.8	61.8	85	57.2	0	0	---	0.00	29.970 
06:35	61.6	61.6	61.6	86	57.4	0	0	---	0.00	29.970 
06:40	61.5	61.5	61.5	86	57.3	0	0	---	0.00	29.970 
06:45	61.3	61.3	61.3	86	57.1	0	0	---	0.00	29.980 
06:50	61.2	61.2	61.2	87	57.3	0	1	292	0.00	29.980 
06:55	61.5	61.5	61.5	86	57.3	0	1	292	0.00	29.980 
07:00	62.0	62.0	62.0	84	57.1	0	1	292	0.00	29.981 
07:05	62.3	62.3	62.3	83	57.1	0	1	292	0.00	29.981 
07:10	62.6	62.6	62.6	82	57.0	0	1	292	0.00	29.981 
07:15	62.9	62.9	62.9	81	57.0	0	1	292	0.00	29.984 
07:20	63.2	63.2	63.2	80	56.9	0	1	292	0.00	29.984 
07:25	63.5	63.5	63.5	79	56.9	0	1	292	0.00	29.984 
07:30	63.9	63.9	63.9	79	57.3	0	1	292	0.00	29.991 
07:35	64.2	64.2	64.2	77	56.8	0	1	292	0.00	29.991 
07:40	64.7	64.7	64.7	75	56.6	1	3	292	0.00	29.991 
07:45	65.5	65.5	65.5	73	56.6	1	3	292	0.00	29.996 
07:50	66.0	66.0	66.0	72	56.7	1	3	292	0.00	29.996 
07:55	66.3	66.3	66.3	71	56.6	1	3	292	0.00	29.996 
08:00	66.6	66.6	66.6	71	56.9	1	3	292	0.00	29.997 
08:05	66.8	66.8	66.8	70	56.7	0	2	292	0.00	29.997 
08:10	67.3	67.3	67.3	70	57.2	1	3	292	0.00	29.997 
08:15	67.6	67.6	67.6	69	57.1	2	4	270	0.00	30.005 
08:20	68.1	68.1	68.1	67	56.7	1	3	270	0.00	30.005 
08:25	68.8	68.8	68.8	65	56.5	1	3	292	0.00	30.005 
08:30	69.3	69.3	69.3	65	57.0	2	4	270	0.00	30.011 
08:35	69.6	69.6	69.6	62	56.0	2	4	270	0.00	30.011 
08:40	70.3	70.3	70.3	62	56.7	1	3	270	0.00	30.011 
08:45	70.8	70.8	70.8	60	56.2	2	4	270	0.00	30.011 
08:50	71.1	71.1	71.1	58	55.6	2	5	270	0.00	30.011 
08:55	71.3	71.3	71.3	58	55.7	2	4	270	0.00	30.011 
09:00	71.6	71.6	71.6	58	56.0	2	6	292	0.00	30.014 
09:05	71.8	71.8	71.8	58	56.2	2	5	270	0.00	30.014 
09:10	71.8	71.8	71.8	58	56.2	2	4	338	0.00	30.014 
09:15	72.0	72.0	72.0	58	56.4	2	5	315	0.00	30.018 
09:20	72.1	72.1	72.1	59	57.0	2	4	292	0.00	30.018 
09:25	72.3	72.3	72.3	59	57.2	2	5	292	0.00	30.018 
09:30	72.5	72.5	72.5	59	57.3	2	5	270	0.00	30.020 
09:35	72.7	72.7	72.7	59	57.5	2	5	292	0.00	30.020 
09:40	72.8	72.8	72.8	59	57.6	3	7	270	0.00	30.020 
09:45	72.8	72.8	72.8	59	57.6	3	9	270	0.00	30.023 
09:50	73.0	73.0	73.0	59	57.8	2	5	315	0.00	30.023 
09:55	73.2	73.2	73.2	59	58.0	2	6	270	0.00	30.023 
10:00	73.7	73.7	73.7	60	58.9	2	4	270	0.00	30.024 
10:05	73.9	73.9	73.9	58	58.2	3	6	270	0.00	30.024 
10:10	73.9	73.9	73.9	57	57.7	2	5	315	0.00	30.024 
10:15	74.0	74.0	74.0	57	57.8	3	5	270	0.00	30.027 
10:20	74.4	74.4	74.4	56	57.7	2	5	292	0.00	30.027 
10:25	74.4	74.4	74.4	55	57.2	2	6	315	0.00	30.027 
10:30	74.7	74.7	74.7	56	57.9	3	6	270	0.00	30.027 
10:35	75.3	75.3	77.6	58	59.5	1	4	292	0.00	30.027 
10:40	75.6	75.6	77.8	55	58.3	1	4	270	0.00	30.027 
10:45	76.0	76.0	78.1	51	56.5	2	5	338	0.00	30.027 
10:50	76.0	76.0	78.1	53	57.6	2	5	270	0.00	30.027 
10:55	76.1	76.1	78.1	50	56.1	3	6	292	0.00	30.027 
11:00	76.3	76.3	78.1	46	54.0	2	9	315	0.00	30.032 
11:05	76.3	76.3	78.1	46	54.0	2	5	315	0.00	30.032 
11:10	76.5	76.5	78.2	46	54.2	2	5	270	0.00	30.032 
11:15	76.7	76.7	78.3	46	54.3	3	6	270	0.00	30.032 
11:20	76.8	76.8	78.3	44	53.2	3	5	270	0.00	30.032 
11:25	77.2	77.2	78.5	43	52.9	3	8	270	0.00	30.032 
11:30	77.2	77.2	78.4	41	51.7	4	7	270	0.00	30.034 
11:35	77.0	77.0	78.2	39	50.1	3	7	315	0.00	30.034 
11:40	77.0	77.0	78.2	40	50.8	3	9	315	0.00	30.034 
11:45	77.4	77.4	78.5	41	51.8	2	6	315	0.00	30.036 
11:50	77.6	77.6	78.5	39	50.7	2	10	292	0.00	30.036 
11:55	77.7	77.7	78.4	37	49.3	3	11	270	0.00	30.036 
12:00	77.6	77.6	78.4	37	49.2	3	8	292	0.00	30.031 
12:05	77.6	77.6	78.4	37	49.2	3	7	315	0.00	30.031 
12:10	78.1	78.1	78.6	37	49.7	3	6	292	0.00	30.031 
12:15	78.1	78.1	78.5	36	48.9	3	7	315	0.00	30.031 
12:20	78.3	78.3	78.6	36	49.1	3	7	292	0.00	30.031 
12:25	78.3	78.3	78.6	35	48.4	3	6	292	0.00	30.031 
12:30	78.3	78.3	78.6	36	49.1	4	7	270	0.00	30.028 
12:35	78.1	78.1	78.5	35	48.2	3	7	270	0.00	30.028 
12:40	78.3	78.3	78.6	35	48.4	3	8	270	0.00	30.028 
12:45	79.0	79.0	79.1	37	50.5	3	6	270	0.00	30.028 
12:50	79.0	79.0	79.2	38	51.2	3	6	270	0.00	30.028 
12:55	79.0	79.0	79.2	38	51.2	3	5	292	0.00	30.028 
13:00	79.0	79.0	79.2	38	51.2	2	5	292	0.00	30.026 
13:05	79.2	79.2	79.2	37	50.7	2	5	270	0.00	30.026 
13:10	79.8	79.8	79.6	37	51.2	2	5	270	0.00	30.026 
13:15	80.1	80.1	79.8	38	52.2	2	5	270	0.00	30.020 
13:20	79.9	79.9	79.6	36	50.5	3	7	270	0.00	30.020 
13:25	79.9	79.9	79.6	37	51.3	3	5	270	0.00	30.020 
13:30	79.6	79.6	79.6	39	52.4	3	7	270	0.00	30.025 
13:35	79.8	79.8	79.6	38	51.9	2	5	270	0.00	30.025 
13:40	79.9	79.9	79.6	37	51.3	2	4	315	0.00	30.025 
13:45	80.1	80.1	79.8	38	52.2	2	5	292	0.00	30.017 
13:50	80.3	80.3	80.0	38	52.4	2	6	270	0.00	30.017 
13:55	80.1	80.1	79.8	38	52.2	2	4	292	0.00	30.017 
14:00	80.3	80.3	80.0	38	52.4	3	8	270	0.00	30.014 
14:05	80.1	80.1	79.8	37	51.5	3	6	292	0.00	30.014 
14:10	80.1	80.1	79.9	39	52.9	2	7	270	0.00	30.014 
14:15	80.3	80.3	80.1	39	53.1	2	6	315	0.00	30.017 
14:20	81.1	81.1	80.4	37	52.3	1	4	270	0.00	30.017 
14:25	81.2	81.2	80.5	37	52.4	3	6	270	0.00	30.017 
14:30	80.9	80.9	79.9	32	48.2	3	6	270	0.00	30.013 
14:35	80.9	80.9	80.0	33	49.1	2	5	292	0.00	30.013 
14:40	80.9	80.9	80.1	34	49.9	2	6	270	0.00	30.013 
14:45	80.7	80.7	79.9	34	49.7	2	4	315	0.00	30.012 
14:50	81.1	81.1	80.4	37	52.3	2	6	270	0.00	30.012 
14:55	81.1	81.1	80.4	36	51.6	2	9	270	0.00	30.012 
15:00	80.9	80.9	80.1	35	50.7	2	5	270	0.00	30.011 
15:05	80.9	80.9	80.1	34	49.9	3	6	292	0.00	30.011 
15:10	80.7	80.7	79.7	31	47.2	3	6	270	0.00	30.011 
15:15	80.7	80.7	79.8	32	48.1	3	7	270	0.00	30.016 
15:20	81.1	81.1	80.1	33	49.2	2	5	315	0.00	30.016 
15:25	81.2	81.2	80.3	34	50.1	2	9	292	0.00	30.016 
15:30	81.2	81.2	79.9	30	46.8	3	6	270	0.00	30.016 
15:35	81.6	81.6	80.2	30	47.1	2	5	270	0.00	30.016 
15:40	81.8	81.8	80.3	29	46.4	3	6	292	0.00	30.016 
15:45	82.0	82.0	80.4	29	46.6	2	7	292	0.00	30.013 
15:50	81.6	81.6	80.1	28	45.3	3	7	270	0.00	30.013 
15:55	81.6	81.6	80.1	28	45.3	2	7	315	0.00	30.013 
16:00	81.6	81.6	80.1	28	45.3	3	6	270	0.00	30.009 
16:05	82.0	82.0	80.3	28	45.7	2	5	270	0.00	30.009 
16:10	82.0	82.0	80.3	28	45.7	3	6	270	0.00	30.009 
16:15	81.6	81.6	80.2	30	47.1	2	5	270	0.00	30.013 
16:20	81.4	81.4	79.9	28	45.1	3	6	292	0.00	30.013 
16:25	81.6	81.6	80.1	29	46.2	3	6	270	0.00	30.013 
16:30	81.8	81.8	80.2	28	45.5	1	4	270	0.00	30.013 
16:35	81.8	81.8	80.3	30	47.3	2	4	315	0.00	30.013 
16:40	81.6	81.6	80.1	28	45.3	3	5	270	0.00	30.013 
16:45	81.4	81.4	80.0	29	46.1	2	5	315	0.00	30.011 
16:50	81.2	81.2	79.9	29	45.9	1	3	315	0.00	30.011 
16:55	81.4	81.4	80.1	31	47.8	1	2	315	0.00	30.011 
17:00	81.8	81.8	80.4	31	48.2	2	4	315	0.00	30.007 
17:05	82.0	82.0	80.8	34	50.8	1	5	315	0.00	30.007 
17:10	82.2	82.2	80.9	33	50.2	2	4	270	0.00	30.007 
17:15	82.0	82.0	80.8	34	50.8	1	5	248	0.00	30.012 
17:20	81.8	81.8	80.8	35	51.4	1	4	270	0.00	30.012 
17:25	81.8	81.8	80.6	33	49.9	2	5	270	0.00	30.012 
17:30	81.8	81.8	80.6	33	49.9	1	4	270	0.00	30.009 
17:35	81.8	81.8	80.7	34	50.7	2	4	248	0.00	30.009 
17:40	81.6	81.6	80.5	33	49.7	2	5	270	0.00	30.009 
17:45	81.8	81.8	80.8	35	51.4	1	3	292	0.00	30.010 
17:50	81.8	81.8	80.7	34	50.7	1	3	292	0.00	30.010 
17:55	81.6	81.6	80.5	34	50.5	2	5	270	0.00	30.010 
18:00	81.2	81.2	80.3	35	50.9	1	3	270	0.00	30.010 
18:05	81.1	81.1	80.3	35	50.8	2	4	270	0.00	30.010 
18:10	80.9	80.9	80.1	35	50.7	2	6	270	0.00	30.010 
18:15	80.5	80.5	79.9	35	50.3	1	5	270	0.00	30.013 
18:20	80.5	80.5	79.9	35	50.3	2	4	270	0.00	30.013 
18:25	80.5	80.5	79.9	35	50.3	2	4	270	0.00	30.013 
18:30	80.3	80.3	79.7	35	50.1	1	4	270	0.00	30.015 
18:35	80.1	80.1	79.6	35	50.0	2	7	270	0.00	30.015 
18:40	79.9	79.9	79.4	34	49.0	3	6	270	0.00	30.015 
18:45	79.9	79.9	79.5	35	49.8	1	4	270	0.00	30.015 
18:50	79.9	79.9	79.3	33	48.2	2	6	270	0.00	30.015 
18:55	79.8	79.8	79.3	34	48.9	2	4	270	0.00	30.015 
19:00	79.8	79.8	79.3	34	48.9	1	4	270	0.00	30.011 
19:05	79.6	79.6	79.2	34	48.7	2	4	270	0.00	30.011 
19:10	79.6	79.6	79.3	35	49.5	2	4	270	0.00	30.011 
19:15	79.4	79.4	79.2	36	50.1	2	5	270	0.00	30.012 
19:20	79.2	79.2	79.1	35	49.2	2	4	270	0.00	30.012 
19:25	79.0	79.0	79.0	35	49.0	2	4	292	0.00	30.012 
19:30	78.8	78.8	78.9	36	49.6	2	5	270	0.00	30.013 
19:35	78.6	78.6	78.8	36	49.4	1	4	270	0.00	30.013 
19:40	78.5	78.5	78.9	38	50.8	1	3	270	0.00	30.013 
19:45	78.3	78.3	78.7	37	49.9	1	3	270	0.00	30.014 
19:50	78.1	78.1	78.7	38	50.4	0	4	270	0.00	30.014 
19:55	77.9	77.9	78.6	38	50.2	1	4	270	0.00	30.014 
20:00	77.7	77.7	78.4	37	49.3	2	5	270	0.00	30.012 
20:05	77.6	77.6	78.4	38	50.0	1	3	270	0.00	30.012 
20:10	77.4	77.4	78.4	39	50.5	0	2	292	0.00	30.012 
20:15	77.2	77.2	78.3	40	51.0	0	2	292	0.00	30.008 
20:20	76.8	76.8	78.1	40	50.6	1	4	292	0.00	30.008 
20:25	76.5	76.5	78.1	41	51.0	0	2	292	0.00	30.008 
20:30	76.3	76.3	78.0	42	51.5	1	2	292	0.00	30.010 
20:35	76.0	76.0	77.9	43	51.9	0	3	292	0.00	30.010 
20:40	75.6	75.6	77.8	43	51.5	0	1	292	0.00	30.010 
20:45	75.3	75.3	77.7	44	51.9	0	1	292	0.00	30.014 
20:50	74.9	74.9	74.9	44	51.5	0	1	292	0.00	30.014 
20:55	74.6	74.6	74.6	44	51.2	0	1	292	0.00	30.014 
21:00	74.2	74.2	74.2	45	51.5	0	0	---	0.00	30.013 
21:05	73.9	73.9	73.9	46	51.8	0	1	292	0.00	30.013 
21:10	73.5	73.5	73.5	46	51.4	0	0	---	0.00	30.013 
21:15	73.3	73.3	73.3	46	51.3	0	1	292	0.00	30.015 
21:20	73.0	73.0	73.0	46	51.0	0	0	---	0.00	30.015 
21:25	72.7	72.7	72.7	47	51.3	0	0	---	0.00	30.015 
21:30	72.3	72.3	72.3	47	50.9	0	0	---	0.00	30.015 
21:35	72.0	72.0	72.0	49	51.8	0	0	---	0.00	30.015 
21:40	71.6	71.6	71.6	49	51.4	0	0	---	0.00	30.015 
21:45	71.1	71.1	71.1	50	51.5	0	0	---	0.00	30.019 
21:50	70.8	70.8	70.8	51	51.8	0	0	---	0.00	30.019 
21:55	70.4	70.4	70.4	51	51.4	0	0	---	0.00	30.019 
22:00	69.9	69.9	69.9	52	51.5	0	0	---	0.00	30.028 
22:05	69.6	69.6	69.6	53	51.7	0	0	---	0.00	30.028 
22:10	69.3	69.3	69.3	54	51.9	0	0	---	0.00	30.028 
22:15	68.8	68.8	68.8	55	52.0	0	0	---	0.00	30.031 
22:20	68.4	68.4	68.4	56	52.1	0	0	---	0.00	30.031 
22:25	68.3	68.3	68.3	57	52.5	0	0	---	0.00	30.031 
22:30	67.8	67.8	67.8	58	52.5	0	0	---	0.00	30.033 
22:35	67.6	67.6	67.6	58	52.3	0	0	---	0.00	30.033 
22:40	67.3	67.3	67.3	59	52.5	0	0	---	0.00	30.033 
22:45	67.1	67.1	67.1	59	52.3	0	0	---	0.00	30.034 
22:50	66.8	66.8	66.8	60	52.5	0	0	---	0.00	30.034 
22:55	66.6	66.6	66.6	61	52.7	0	0	---	0.00	30.034 
23:00	66.4	66.4	66.4	61	52.5	0	0	---	0.00	30.033 
23:05	66.4	66.4	66.4	61	52.5	0	0	---	0.00	30.033 
23:10	66.3	66.3	66.3	61	52.4	0	0	---	0.00	30.033 
23:15	66.1	66.1	66.1	62	52.7	0	0	---	0.00	30.031 
23:20	66.1	66.1	66.1	63	53.1	0	0	---	0.00	30.031 
23:25	66.0	66.0	66.0	63	53.0	0	0	---	0.00	30.031 
23:30	66.0	66.0	66.0	64	53.5	0	0	---	0.00	30.031 
23:35	65.8	65.8	65.8	63	52.8	0	0	---	0.00	30.031 
23:40	65.8	65.8	65.8	64	53.3	0	0	---	0.00	30.031 
23:45	65.8	65.8	65.8	64	53.3	0	0	---	0.00	30.031 
23:50	65.8	65.8	65.8	64	53.3	0	0	---	0.00	30.031 
23:55	65.6	65.6	65.6	64	53.1	0	0	---	0.00	30.031 

CoCoRaHS
IN-AL-39
A2 Web Hosting
Creative Commons License
GoDaddy
search engine by freefind advanced

loaded 2018-11-15 15:38:35 • last modified 2010-11-18 10:43:29
Privacy PolicyDisclaimer
• wx.awcolley.com is powered by PmWiki v.2002016 •
• all content (unless otherwise noted) © 2018 A W Colley